Time;durP1;ratioP1;P1;durP2;ratioP2;P2;SDS_P1;SDS_P2;PMS_P1;PMS_P2;Temp;Humidity;BMP_temperature;BMP_pressure;BME280_temperature;BME280_humidity;BME280_pressure;Samples;Min_cycle;Max_cycle;Signal;HPM_P1;HPM_P2
2023/06/21 00:00:40;;;;;;;0.90;0.35;;;;;;;24.96;100.00;99321.72;7399025;19;20378;-56
2023/06/21 00:03:06;;;;;;;0.95;0.35;;;;;;;24.95;100.00;99317.34;7399228;19;20022;-56
2023/06/21 00:05:33;;;;;;;0.50;0.45;;;;;;;24.79;100.00;99313.97;7400545;19;20014;-56
2023/06/21 00:07:59;;;;;;;0.88;0.65;;;;;;;24.51;100.00;99317.28;7398541;19;20006;-56
2023/06/21 00:10:28;;;;;;;1.38;0.25;;;;;;;19.93;100.00;99312.22;7398534;19;20011;-56
2023/06/21 00:12:54;;;;;;;1.17;0.45;;;;;;;17.16;100.00;99324.16;7398453;19;20025;-56
2023/06/21 00:15:22;;;;;;;1.50;0.70;;;;;;;17.29;100.00;99315.03;7399677;19;20035;-56
2023/06/21 00:17:48;;;;;;;1.45;0.20;;;;;;;23.77;100.00;99314.50;7399905;19;20498;-56
2023/06/21 00:20:15;;;;;;;3.50;0.65;;;;;;;23.79;100.00;99311.84;7398349;19;20010;-56
2023/06/21 00:22:45;;;;;;;0.57;0.10;;;;;;;24.33;100.00;99309.31;7398164;19;20006;-56
2023/06/21 00:25:13;;;;;;;2.28;0.40;;;;;;;24.18;100.00;99318.00;7399505;19;20025;-56
2023/06/21 00:27:39;;;;;;;0.43;0.22;;;;;;;23.92;100.00;99327.84;7401462;19;20355;-56
2023/06/21 00:30:06;;;;;;;1.85;0.52;;;;;;;24.17;100.00;99333.56;7396370;19;20025;-56
2023/06/21 00:32:32;;;;;;;2.42;0.73;;;;;;;24.08;100.00;99327.16;7397858;19;20398;-57
2023/06/21 00:34:58;;;;;;;0.93;0.73;;;;;;;23.36;100.00;99326.53;7397491;19;20007;-56
2023/06/21 00:37:26;;;;;;;0.17;0.17;;;;;;;24.15;100.00;99327.72;7397781;19;20499;-56
2023/06/21 00:39:53;;;;;;;1.02;0.47;;;;;;;23.35;100.00;99331.47;7397694;19;20347;-56
2023/06/21 00:42:19;;;;;;;0.20;0.20;;;;;;;24.38;100.00;99331.09;7399643;19;20014;-56
2023/06/21 00:44:45;;;;;;;2.60;0.52;;;;;;;23.45;100.00;99339.38;7398482;19;20002;-56
2023/06/21 00:47:12;;;;;;;0.70;0.47;;;;;;;23.02;100.00;99343.34;7395974;19;20019;-56
2023/06/21 00:49:38;;;;;;;3.58;1.33;;;;;;;22.95;100.00;99344.91;7397250;19;20010;-56
2023/06/21 00:52:05;;;;;;;0.38;0.20;;;;;;;23.10;100.00;99341.22;7397378;19;20021;-56
2023/06/21 00:54:36;;;;;;;0.57;0.30;;;;;;;25.17;100.00;99336.25;7397657;19;20010;-56
2023/06/21 00:57:03;;;;;;;0.50;0.25;;;;;;;28.37;94.74;99334.69;7398791;19;20051;-56
2023/06/21 00:59:30;;;;;;;0.50;0.30;;;;;;;23.52;100.00;99350.69;7397491;19;20010;-56
2023/06/21 01:01:58;;;;;;;0.80;0.40;;;;;;;22.88;100.00;99350.59;7395927;19;20017;-56
2023/06/21 01:04:27;;;;;;;15.52;1.00;;;;;;;22.28;100.00;99355.06;7395303;19;20014;-56
2023/06/21 01:07:20;;;;;;;0.20;0.10;;;;;;;23.54;100.00;99350.88;7396548;19;20010;-56
2023/06/21 01:09:55;;;;;;;1.95;0.40;;;;;;;24.39;100.00;99352.50;7397092;19;20248;-56
2023/06/21 01:12:30;;;;;;;1.02;0.25;;;;;;;29.69;86.32;99344.88;7396898;19;20057;-56
2023/06/21 01:15:02;;;;;;;0.38;0.38;;;;;;;24.21;100.00;99346.06;7394792;19;20335;-56
2023/06/21 01:17:34;;;;;;;1.10;0.30;;;;;;;24.78;100.00;99352.31;7395864;19;20388;-56
2023/06/21 01:20:05;;;;;;;0.50;0.28;;;;;;;22.66;100.00;99357.84;7395096;19;20018;-56
2023/06/21 01:23:06;;;;;;;0.77;0.20;;;;;;;22.87;100.00;99349.09;7396683;19;20074;-56
2023/06/21 01:26:05;;;;;;;;;;;;;;;21.63;100.00;99355.94;7397924;19;20336;-56
2023/06/21 01:28:44;;;;;;;1.25;0.47;;;;;;;22.06;100.00;99360.72;7394394;19;20366;-57
2023/06/21 01:31:16;;;;;;;0.85;0.85;;;;;;;20.79;100.00;99368.28;7395686;19;20010;-56
2023/06/21 01:33:42;;;;;;;3.05;0.75;;;;;;;20.98;100.00;99366.66;7395861;19;20006;-56
2023/06/21 01:36:09;;;;;;;1.50;0.80;;;;;;;21.23;100.00;99369.03;7393059;19;20031;-56
2023/06/21 01:38:36;;;;;;;0.30;0.30;;;;;;;21.49;100.00;99374.41;7395483;19;20022;-56
2023/06/21 01:41:02;;;;;;;3.30;0.25;;;;;;;21.21;100.00;99377.34;7396557;19;20377;-56
2023/06/21 01:43:30;;;;;;;0.85;0.25;;;;;;;21.04;100.00;99378.63;7397507;19;20102;-56
2023/06/21 01:45:59;;;;;;;2.05;0.70;;;;;;;19.58;100.00;99376.53;7394031;19;20360;-56
2023/06/21 01:48:26;;;;;;;0.50;0.40;;;;;;;24.99;100.00;99377.53;7395461;19;20459;-56
2023/06/21 01:50:52;;;;;;;0.28;0.28;;;;;;;21.79;100.00;99380.16;7395368;19;20018;-57
2023/06/21 01:53:34;;;;;;;2.42;0.52;;;;;;;22.01;100.00;99368.09;7396377;19;20011;-57
2023/06/21 01:56:01;;;;;;;2.58;1.00;;;;;;;21.80;100.00;99376.00;7398683;19;20013;-57
2023/06/21 01:58:28;;;;;;;1.45;0.93;;;;;;;21.81;100.00;99375.44;7395820;19;20030;-57
2023/06/21 02:00:59;;;;;;;2.47;0.47;;;;;;;22.01;100.00;99370.94;7394789;19;20027;-59
2023/06/21 02:03:27;;;;;;;0.47;0.30;;;;;;;20.70;100.00;99369.53;7394241;19;20013;-61
2023/06/21 02:05:55;;;;;;;2.40;0.95;;;;;;;21.91;100.00;99363.56;7395521;19;20011;-61
2023/06/21 02:08:22;;;;;;;0.35;0.20;;;;;;;20.97;100.00;99370.81;7395087;19;20014;-60
2023/06/21 02:10:49;;;;;;;0.93;0.70;;;;;;;21.00;100.00;99364.03;7393157;19;20011;-61
2023/06/21 02:13:16;;;;;;;2.15;0.63;;;;;;;21.53;100.00;99364.22;7394899;19;20211;-61
2023/06/21 02:15:46;;;;;;;0.70;0.20;;;;;;;20.69;100.00;99361.59;7397021;19;20366;-61
2023/06/21 02:18:13;;;;;;;1.83;0.43;;;;;;;22.31;100.00;99373.78;7396012;19;20097;-60
2023/06/21 02:20:40;;;;;;;6.18;0.80;;;;;;;20.45;100.00;99373.31;7394435;19;20485;-60
2023/06/21 02:23:06;;;;;;;1.25;0.25;;;;;;;22.33;100.00;99373.94;7394299;19;20392;-61
2023/06/21 02:25:35;;;;;;;1.33;0.47;;;;;;;22.91;100.00;99377.84;7394735;19;20070;-61
2023/06/21 02:28:02;;;;;;;6.43;0.32;;;;;;;28.51;96.31;99367.16;7396649;19;20472;-60
2023/06/21 02:30:29;;;;;;;0.17;0.10;;;;;;;31.53;74.54;99367.47;7394483;19;20346;-60
2023/06/21 02:32:56;;;;;;;2.53;0.68;;;;;;;32.37;67.84;99365.59;7394682;19;20089;-61
2023/06/21 02:35:22;;;;;;;1.13;0.20;;;;;;;28.51;74.92;99370.03;7391804;19;20014;-60
2023/06/21 02:37:48;;;;;;;1.42;0.43;;;;;;;32.08;68.47;99364.09;7393718;19;20396;-61
2023/06/21 02:40:14;;;;;;;0.60;0.60;;;;;;;32.44;65.05;99370.28;7393911;19;20011;-61
2023/06/21 02:42:41;;;;;;;0.63;0.43;;;;;;;32.71;61.74;99370.28;7392336;19;20015;-61
2023/06/21 02:45:09;;;;;;;3.42;0.93;;;;;;;33.26;59.69;99373.81;7392597;19;20168;-61
2023/06/21 02:47:35;;;;;;;1.50;0.32;;;;;;;33.60;56.93;99369.72;7393780;19;20496;-61
2023/06/21 02:50:03;;;;;;;3.03;0.20;;;;;;;33.61;56.01;99371.25;7401983;19;20466;-61
2023/06/21 02:52:30;;;;;;;2.20;1.17;;;;;;;33.64;55.28;99369.91;7401108;19;20015;-61
2023/06/21 02:54:57;;;;;;;0.98;0.50;;;;;;;33.66;54.37;99364.25;7400888;19;20466;-61
2023/06/21 02:57:23;;;;;;;0.17;0.17;;;;;;;33.47;53.14;99373.41;7404082;19;20014;-61
2023/06/21 02:59:50;;;;;;;0.55;0.17;;;;;;;33.55;52.17;99377.44;7401160;19;20015;-61
2023/06/21 03:02:17;;;;;;;2.92;0.17;;;;;;;33.21;53.65;99372.88;7402313;19;20010;-61
2023/06/21 03:04:44;;;;;;;1.13;0.10;;;;;;;28.57;56.90;99389.00;7399595;19;20022;-61
2023/06/21 03:07:11;;;;;;;0.85;0.50;;;;;;;17.79;100.00;99393.88;7397111;19;20466;-61
2023/06/21 03:09:38;;;;;;;0.52;0.28;;;;;;;16.10;100.00;99401.81;7398963;19;20018;-61
2023/06/21 03:12:08;;;;;;;0.65;0.63;;;;;;;14.75;100.00;99389.13;7398562;19;20023;-62
2023/06/21 03:14:37;;;;;;;3.28;0.40;;;;;;;14.00;100.00;99406.31;7401997;19;20021;-61
2023/06/21 03:17:06;;;;;;;0.35;0.20;;;;;;;16.64;100.00;99394.13;7398883;19;20466;-62
2023/06/21 03:19:33;;;;;;;1.60;0.52;;;;;;;30.19;79.30;99386.78;7397683;19;20537;-61
2023/06/21 03:22:00;;;;;;;0.60;0.22;;;;;;;32.20;63.92;99387.06;7397189;19;20025;-61
2023/06/21 03:24:28;;;;;;;0.30;0.20;;;;;;;33.25;58.20;99387.50;7398176;19;20015;-62
2023/06/21 03:26:56;;;;;;;0.40;0.10;;;;;;;33.57;55.13;99382.56;7399462;19;20006;-61
2023/06/21 03:29:23;;;;;;;2.75;1.27;;;;;;;34.37;51.92;99384.88;7398912;19;20006;-61
2023/06/21 03:31:50;;;;;;;1.05;0.30;;;;;;;34.53;49.76;99379.84;7397851;19;20027;-61
2023/06/21 03:34:16;;;;;;;1.30;0.82;;;;;;;34.07;49.49;99404.47;7397729;19;20021;-61
2023/06/21 03:36:42;;;;;;;0.90;0.50;;;;;;;34.15;48.63;99399.84;7398406;19;20010;-61
2023/06/21 03:39:11;;;;;;;0.50;0.50;;;;;;;33.77;49.41;99411.69;7397636;19;20031;-61
2023/06/21 03:41:38;;;;;;;0.50;0.50;;;;;;;34.52;46.54;99413.06;7398443;19;20021;-61
2023/06/21 03:44:04;;;;;;;2.38;0.30;;;;;;;34.87;45.33;99407.41;7397776;19;20011;-61
2023/06/21 03:46:30;;;;;;;0.30;0.10;;;;;;;35.06;44.21;99412.59;7396749;19;20011;-61
2023/06/21 03:48:58;;;;;;;1.35;0.73;;;;;;;35.21;43.62;99414.69;7398265;19;20006;-61
2023/06/21 03:51:25;;;;;;;0.10;0.10;;;;;;;35.39;42.85;99417.59;7398004;19;20497;-61
2023/06/21 03:53:52;;;;;;;3.15;0.47;;;;;;;35.44;42.45;99427.91;7398035;19;20010;-61
2023/06/21 03:56:18;;;;;;;2.25;0.65;;;;;;;35.42;42.13;99422.78;7398841;19;20038;-61
2023/06/21 03:58:45;;;;;;;0.47;0.35;;;;;;;35.39;42.05;99429.19;7396383;19;20014;-61
2023/06/21 04:01:11;;;;;;;8.07;0.88;;;;;;;35.56;41.36;99431.34;7398797;19;20010;-61
2023/06/21 04:03:37;;;;;;;1.13;0.30;;;;;;;35.72;40.77;99424.06;7398714;19;20018;-61
2023/06/21 04:06:03;;;;;;;4.75;0.77;;;;;;;35.74;40.40;99432.81;7396908;19;20503;-61
2023/06/21 04:08:31;;;;;;;1.70;0.57;;;;;;;35.66;40.12;99438.31;7397366;19;20482;-61
2023/06/21 04:10:58;;;;;;;1.98;0.30;;;;;;;35.99;39.11;99436.72;7398329;19;20459;-61
2023/06/21 04:13:24;;;;;;;1.92;0.52;;;;;;;36.30;38.80;99433.56;7398482;19;20011;-61
2023/06/21 04:15:50;;;;;;;1.65;0.85;;;;;;;35.82;38.88;99449.06;7397004;19;20482;-61
2023/06/21 04:18:17;;;;;;;0.40;0.40;;;;;;;35.91;38.82;99445.06;7398963;19;20073;-61
2023/06/21 04:20:43;;;;;;;1.85;0.52;;;;;;;35.98;38.47;99456.25;7397759;19;20027;-61
2023/06/21 04:23:09;;;;;;;1.08;0.50;;;;;;;35.79;38.48;99457.66;7398937;19;20030;-61
2023/06/21 04:25:36;;;;;;;1.48;0.55;;;;;;;35.73;38.50;99460.34;7398224;19;20035;-61
2023/06/21 04:28:02;;;;;;;0.80;0.50;;;;;;;35.50;39.00;99455.00;7400439;19;20010;-61
2023/06/21 04:30:33;;;;;;;0.43;0.17;;;;;;;35.13;38.66;99457.75;7396559;19;20027;-61
2023/06/21 04:33:00;;;;;;;2.00;0.73;;;;;;;19.81;100.00;99484.16;7397850;19;20026;-61
2023/06/21 04:35:26;;;;;;;1.15;0.40;;;;;;;15.55;100.00;99481.63;7398274;19;20022;-61
2023/06/21 04:37:52;;;;;;;2.25;0.43;;;;;;;14.29;100.00;99495.47;7396605;19;20031;-61
2023/06/21 04:40:21;;;;;;;1.23;0.40;;;;;;;13.60;100.00;99500.69;7395234;19;20018;-61
2023/06/21 04:42:54;;;;;;;1.50;0.75;;;;;;;13.46;100.00;99504.47;7397274;19;20011;-60
2023/06/21 04:45:21;;;;;;;1.83;0.93;;;;;;;13.27;100.00;99511.00;7396118;19;20011;-60
2023/06/21 04:47:48;;;;;;;5.55;0.43;;;;;;;13.40;100.00;99514.88;7395455;19;20011;-60
2023/06/21 04:50:15;;;;;;;0.40;0.40;;;;;;;13.36;100.00;99519.91;7397854;19;20007;-60
2023/06/21 04:52:41;;;;;;;2.00;0.75;;;;;;;13.29;100.00;99519.66;7400391;19;20017;-61
2023/06/21 04:55:09;;;;;;;1.70;0.38;;;;;;;25.00;100.00;99501.56;7395278;19;20014;-61
2023/06/21 04:57:35;;;;;;;0.63;0.63;;;;;;;22.77;100.00;99504.31;7397430;19;20011;-61
2023/06/21 05:00:07;;;;;;;0.80;0.40;;;;;;;25.16;100.00;99507.88;7395891;19;20038;-61
2023/06/21 05:02:33;;;;;;;0.63;0.43;;;;;;;16.67;100.00;99505.56;7394694;19;20010;-61
2023/06/21 05:04:59;;;;;;;0.88;0.52;;;;;;;14.59;100.00;99507.66;7396191;19;20021;-61
2023/06/21 05:07:26;;;;;;;0.70;0.28;;;;;;;13.77;100.00;99519.56;7392710;19;20018;-61
2023/06/21 05:09:52;;;;;;;1.10;0.52;;;;;;;14.46;100.00;99529.06;7393737;19;20010;-61
2023/06/21 05:12:18;;;;;;;0.40;0.40;;;;;;;15.90;100.00;99518.16;7395212;19;20043;-61
2023/06/21 05:14:44;;;;;;;1.40;0.40;;;;;;;14.09;100.00;99527.25;7395227;19;20019;-61
2023/06/21 05:17:12;;;;;;;0.98;0.45;;;;;;;14.02;100.00;99541.75;7400607;19;20463;-61
2023/06/21 05:19:38;;;;;;;1.30;0.40;;;;;;;14.21;100.00;99542.00;7396617;19;20014;-61
2023/06/21 05:22:04;;;;;;;1.45;0.65;;;;;;;14.04;100.00;99552.41;7394307;19;20006;-61
2023/06/21 05:24:30;;;;;;;0.22;0.20;;;;;;;13.94;100.00;99551.13;7395107;19;20014;-61
2023/06/21 05:26:56;;;;;;;1.55;0.40;;;;;;;13.37;100.00;99555.03;7397678;19;20030;-60
2023/06/21 05:29:24;;;;;;;0.63;0.30;;;;;;;13.61;100.00;99560.97;7395802;19;20019;-61
2023/06/21 05:31:51;;;;;;;0.77;0.32;;;;;;;13.65;100.00;99563.53;7394599;19;20007;-60
2023/06/21 05:34:18;;;;;;;0.30;0.28;;;;;;;13.55;100.00;99565.78;7394609;19;20011;-61
2023/06/21 05:36:44;;;;;;;1.80;0.70;;;;;;;13.62;100.00;99559.69;7398836;19;20390;-61
2023/06/21 05:39:10;;;;;;;0.98;0.55;;;;;;;13.76;100.00;99563.56;7395061;19;20014;-61
2023/06/21 05:41:37;;;;;;;1.05;0.70;;;;;;;13.84;100.00;99563.84;7398734;19;20034;-60
2023/06/21 05:44:03;;;;;;;0.55;0.55;;;;;;;14.07;100.00;99573.81;7397816;19;20477;-61
2023/06/21 05:46:32;;;;;;;1.00;0.43;;;;;;;13.84;100.00;99569.44;7396276;19;20014;-61
2023/06/21 05:49:01;;;;;;;1.23;0.50;;;;;;;14.23;100.00;99568.25;7395091;19;20013;-61
2023/06/21 05:51:30;;;;;;;2.20;0.55;;;;;;;14.03;100.00;99568.47;7395024;19;20459;-61
2023/06/21 05:53:58;;;;;;;2.92;0.68;;;;;;;14.08;100.00;99576.09;7395079;19;20414;-61
2023/06/21 05:56:26;;;;;;;0.38;0.38;;;;;;;13.77;100.00;99575.53;7396176;19;20351;-61
2023/06/21 05:58:53;;;;;;;0.93;0.40;;;;;;;13.89;100.00;99583.44;7394657;19;20082;-61
2023/06/21 06:01:20;;;;;;;0.95;0.43;;;;;;;14.00;100.00;99593.91;7393704;19;20031;-61
2023/06/21 06:03:46;;;;;;;2.45;0.45;;;;;;;14.16;100.00;99579.19;7394851;19;20024;-60
2023/06/21 06:06:15;;;;;;;3.35;0.50;;;;;;;14.74;100.00;99578.22;7394732;19;20010;-60
2023/06/21 06:08:41;;;;;;;1.98;0.50;;;;;;;14.43;100.00;99584.84;7394578;19;20090;-60
2023/06/21 06:11:08;;;;;;;1.38;0.50;;;;;;;14.59;100.00;99583.31;7395056;19;20018;-60
2023/06/21 06:13:34;;;;;;;0.57;0.57;;;;;;;14.56;100.00;99583.56;7394612;19;20006;-60
2023/06/21 06:16:02;;;;;;;1.92;0.63;;;;;;;14.63;100.00;99583.84;7395710;19;20018;-60
2023/06/21 06:18:28;;;;;;;2.72;0.63;;;;;;;14.78;100.00;99595.56;7396643;19;20021;-60
2023/06/21 06:20:55;;;;;;;0.20;0.20;;;;;;;14.72;100.00;99600.41;7391677;19;20014;-60
2023/06/21 06:23:23;;;;;;;2.38;1.27;;;;;;;14.66;100.00;99601.69;7392093;19;20024;-60
2023/06/21 06:25:49;;;;;;;0.75;0.20;;;;;;;14.80;100.00;99609.81;7394383;19;20015;-60
2023/06/21 06:28:16;;;;;;;1.50;0.45;;;;;;;15.37;100.00;99594.44;7398585;19;20010;-60
2023/06/21 06:30:42;;;;;;;1.50;0.98;;;;;;;15.62;100.00;99598.94;7393379;19;20070;-61
2023/06/21 06:33:08;;;;;;;3.15;0.82;;;;;;;14.98;100.00;99608.53;7393467;19;20018;-61
2023/06/21 06:35:34;;;;;;;3.53;0.60;;;;;;;15.00;100.00;99606.75;7392998;19;20451;-61
2023/06/21 06:38:00;;;;;;;0.75;0.40;;;;;;;15.16;100.00;99614.34;7393828;19;20023;-60
2023/06/21 06:40:26;;;;;;;1.10;0.55;;;;;;;14.99;100.00;99618.47;7394072;19;20471;-61
2023/06/21 06:42:53;;;;;;;2.78;1.08;;;;;;;15.31;100.00;99622.47;7393514;19;20518;-60
2023/06/21 06:45:19;;;;;;;3.20;0.32;;;;;;;15.39;100.00;99619.94;7392890;19;20416;-61
2023/06/21 06:47:45;;;;;;;2.10;0.80;;;;;;;15.53;100.00;99619.66;7390972;19;20495;-60
2023/06/21 06:50:11;;;;;;;1.52;0.95;;;;;;;15.48;100.00;99628.09;7392836;19;20023;-61
2023/06/21 06:52:38;;;;;;;1.48;0.47;;;;;;;15.35;100.00;99636.28;7393828;19;20031;-61
2023/06/21 06:55:04;;;;;;;2.25;0.68;;;;;;;15.77;100.00;99639.47;7391558;19;20347;-62
2023/06/21 06:57:30;;;;;;;0.50;0.38;;;;;;;15.90;100.00;99638.91;7396512;19;20021;-61
2023/06/21 06:59:56;;;;;;;2.10;0.70;;;;;;;15.84;100.00;99643.78;7392720;19;20043;-61
2023/06/21 07:02:23;;;;;;;1.60;0.30;;;;;;;15.87;100.00;99642.75;7393225;19;20345;-63
2023/06/21 07:04:49;;;;;;;1.85;0.68;;;;;;;15.86;100.00;99655.28;7393370;19;20080;-63
2023/06/21 07:07:15;;;;;;;4.50;0.75;;;;;;;15.82;100.00;99649.94;7396511;19;20042;-63
2023/06/21 07:09:42;;;;;;;2.83;0.90;;;;;;;16.09;100.00;99653.88;7394002;19;20010;-63
2023/06/21 07:12:09;;;;;;;4.32;0.75;;;;;;;16.09;100.00;99648.25;7391062;19;20058;-63
2023/06/21 07:14:35;;;;;;;3.97;1.08;;;;;;;16.12;100.00;99652.09;7391750;19;20044;-63
2023/06/21 07:17:02;;;;;;;2.30;0.82;;;;;;;16.37;100.00;99651.69;7394026;19;20332;-63
2023/06/21 07:19:29;;;;;;;2.72;0.60;;;;;;;16.50;100.00;99657.50;7390733;19;20011;-63
2023/06/21 07:21:56;;;;;;;2.72;0.60;;;;;;;16.50;100.00;99660.31;7392751;19;20018;-63
2023/06/21 07:24:24;;;;;;;1.35;0.50;;;;;;;16.66;100.00;99665.06;7391113;19;20014;-63
2023/06/21 07:26:51;;;;;;;2.15;0.50;;;;;;;16.87;100.00;99671.03;7395350;19;20015;-63
2023/06/21 07:29:17;;;;;;;3.00;1.10;;;;;;;17.01;100.00;99669.16;7392847;19;20007;-64
2023/06/21 07:31:43;;;;;;;0.20;0.20;;;;;;;16.99;100.00;99674.53;7392498;19;20022;-63
2023/06/21 07:34:17;;;;;;;2.88;0.70;;;;;;;17.10;100.00;99680.06;7400490;19;20019;-63
2023/06/21 07:36:44;;;;;;;2.72;0.88;;;;;;;17.43;100.00;99676.97;7400907;19;20113;-63
2023/06/21 07:39:11;;;;;;;4.15;1.10;;;;;;;17.53;100.00;99685.84;7399766;19;20015;-64
2023/06/21 07:41:37;;;;;;;2.15;0.70;;;;;;;17.96;100.00;99672.53;7400513;19;20014;-63
2023/06/21 07:44:03;;;;;;;5.90;1.30;;;;;;;27.36;100.00;99643.53;7400014;19;20337;-63
2023/06/21 07:46:29;;;;;;;4.00;0.50;;;;;;;26.77;100.00;99650.34;7400837;19;20015;-63
2023/06/21 07:48:56;;;;;;;0.85;0.40;;;;;;;36.24;74.92;99637.13;7398058;19;20014;-56
2023/06/21 07:51:22;;;;;;;2.42;0.52;;;;;;;24.69;100.00;99651.25;7399628;19;20014;-63
2023/06/21 07:56:44;;;;;;;1.80;0.43;;;;;;;18.92;100.00;99663.00;7401732;19;20006;-56
2023/06/21 07:59:10;;;;;;;2.05;0.60;;;;;;;18.98;100.00;99669.31;7395471;19;20011;-56
2023/06/21 08:01:36;;;;;;;2.92;0.70;;;;;;;33.06;98.93;99646.97;7393893;19;20504;-57
2023/06/21 08:04:03;;;;;;;0.80;0.50;;;;;;;33.36;93.62;99657.28;7395418;19;20014;-57
2023/06/21 08:06:29;;;;;;;1.10;0.47;;;;;;;21.44;100.00;99659.44;7398028;19;20070;-56
2023/06/21 08:08:55;;;;;;;1.52;0.50;;;;;;;20.40;100.00;99661.44;7397423;19;20022;-56
2023/06/21 08:11:22;;;;;;;0.73;0.38;;;;;;;20.28;100.00;99662.25;7398085;19;20018;-56
2023/06/21 08:13:48;;;;;;;0.77;0.15;;;;;;;20.99;100.00;99662.63;7397265;19;20010;-56
2023/06/21 08:16:15;;;;;;;1.15;0.28;;;;;;;19.92;100.00;99667.63;7399317;19;20376;-57
2023/06/21 08:18:43;;;;;;;1.95;0.63;;;;;;;23.75;100.00;99664.13;7400833;19;20015;-57
2023/06/21 08:21:09;;;;;;;0.80;0.30;;;;;;;24.00;100.00;99676.38;7396972;19;20010;-57
2023/06/21 08:23:35;;;;;;;0.63;0.20;;;;;;;20.72;100.00;99675.41;7397461;19;20054;-57
2023/06/21 08:26:01;;;;;;;3.50;0.45;;;;;;;30.34;100.00;99673.66;7396351;19;20095;-57
2023/06/21 08:28:28;;;;;;;0.40;0.30;;;;;;;21.93;100.00;99679.25;7395810;19;20029;-57
2023/06/21 08:30:54;;;;;;;5.63;0.30;;;;;;;21.34;100.00;99681.09;7397189;19;20022;-57
2023/06/21 08:33:20;;;;;;;2.80;0.30;;;;;;;20.38;100.00;99683.09;7397705;19;20015;-56
2023/06/21 08:35:46;;;;;;;3.60;0.45;;;;;;;20.22;100.00;99681.41;7398311;19;20015;-57
2023/06/21 08:38:12;;;;;;;1.08;0.40;;;;;;;20.18;100.00;99697.94;7396127;19;20466;-56
2023/06/21 08:40:42;;;;;;;1.13;0.38;;;;;;;20.54;100.00;99701.78;7397485;19;20011;-57
2023/06/21 08:43:08;;;;;;;1.73;1.07;;;;;;;20.31;100.00;99695.09;7397501;19;20466;-57
2023/06/21 08:45:35;;;;;;;3.17;0.50;;;;;;;20.60;100.00;99693.94;7397231;19;20577;-57
2023/06/21 08:48:05;;;;;;;0.75;0.20;;;;;;;20.52;100.00;99690.25;7397423;19;20010;-57
2023/06/21 08:50:36;;;;;;;1.80;0.10;;;;;;;20.36;100.00;99697.03;7396716;19;20463;-57
2023/06/21 08:53:06;;;;;;;1.02;0.30;;;;;;;20.25;100.00;99703.69;7396403;19;20022;-57
2023/06/21 08:55:35;;;;;;;1.00;0.40;;;;;;;20.65;100.00;99712.88;7398066;19;20379;-57
2023/06/21 08:58:16;;;;;;;1.20;0.47;;;;;;;20.92;100.00;99702.22;7400874;19;20014;-58
2023/06/21 09:00:47;;;;;;;1.83;0.45;;;;;;;21.08;100.00;99709.56;7397006;19;20091;-57
2023/06/21 09:03:32;;;;;;;0.10;0.10;;;;;;;20.37;100.00;99709.88;7397011;19;20018;-57
2023/06/21 09:06:06;;;;;;;1.00;0.70;;;;;;;20.18;100.00;99712.06;7397486;19;20386;-57
2023/06/21 09:08:33;;;;;;;2.78;0.50;;;;;;;20.24;100.00;99712.72;7396437;19;20026;-57
2023/06/21 09:11:01;;;;;;;0.73;0.50;;;;;;;20.63;100.00;99715.47;7396338;19;20019;-57
2023/06/21 09:13:27;;;;;;;2.40;0.70;;;;;;;21.06;100.00;99715.78;7396214;19;20018;-57
2023/06/21 09:15:58;;;;;;;3.15;0.70;;;;;;;20.89;100.00;99718.22;7397280;19;20490;-58
2023/06/21 09:18:24;;;;;;;;;;;;;;;21.17;100.00;99716.81;7399915;19;20062;-58
2023/06/21 09:20:50;;;;;;;2.00;0.20;;;;;;;21.58;100.00;99716.78;7396437;19;19911;-58
2023/06/21 09:23:17;;;;;;;1.05;0.25;;;;;;;21.93;100.00;99724.63;7393843;19;20459;-58
2023/06/21 09:25:48;;;;;;;5.10;0.90;;;;;;;26.51;100.00;99718.88;7396121;19;20479;-58
2023/06/21 09:28:14;;;;;;;2.10;0.52;;;;;;;23.20;100.00;99722.88;7399195;19;20035;-58
2023/06/21 09:30:41;;;;;;;0.35;0.17;;;;;;;22.12;100.00;99727.97;7395493;19;20014;-57
2023/06/21 09:33:08;;;;;;;1.45;0.22;;;;;;;23.69;100.00;99725.38;7395785;19;20018;-57
2023/06/21 09:35:34;;;;;;;0.57;0.32;;;;;;;34.88;91.20;99721.47;7395612;19;20409;-57
2023/06/21 09:38:00;;;;;;;1.75;0.22;;;;;;;37.54;68.54;99722.16;7394007;19;20011;-57
2023/06/21 09:40:26;;;;;;;0.85;0.10;;;;;;;36.11;62.14;99727.91;7395925;19;20070;-57
2023/06/21 09:42:53;;;;;;;3.08;0.43;;;;;;;41.94;46.29;99718.03;7396065;19;20006;-57
2023/06/21 09:45:19;;;;;;;8.20;0.28;;;;;;;28.54;92.43;99734.84;7393402;19;20010;-57
2023/06/21 09:47:46;;;;;;;1.10;0.32;;;;;;;26.57;100.00;99731.56;7393877;19;20066;-57
2023/06/21 09:50:12;;;;;;;2.80;0.55;;;;;;;36.31;70.50;99725.13;7395805;19;20007;-58
2023/06/21 09:52:45;;;;;;;1.23;0.30;;;;;;;40.76;50.38;99719.81;7395811;19;20070;-57
2023/06/21 09:55:15;;;;;;;3.47;0.43;;;;;;;41.09;46.81;99725.00;7394620;19;20014;-58
2023/06/21 09:57:41;;;;;;;;;;;;;;;41.83;42.28;99713.44;7396011;19;21452;-58
2023/06/21 10:00:08;;;;;;;2.35;0.82;;;;;;;41.87;39.98;99720.09;7394188;19;19914;-58
2023/06/21 10:02:39;;;;;;;0.63;0.43;;;;;;;41.75;40.65;99727.91;7394221;19;20092;-57
2023/06/21 10:05:15;;;;;;;0.70;0.40;;;;;;;42.71;38.84;99715.03;7394236;19;20356;-57
2023/06/21 10:07:45;;;;;;;0.57;0.20;;;;;;;43.28;35.90;99713.72;7392817;19;20347;-57
2023/06/21 10:10:12;;;;;;;0.70;0.20;;;;;;;43.11;36.19;99725.91;7393711;19;20012;-58
2023/06/21 10:12:54;;;;;;;0.73;0.20;;;;;;;43.40;35.58;99724.88;7394568;19;20023;-58
2023/06/21 10:15:21;;;;;;;1.25;0.28;;;;;;;43.21;34.21;99723.13;7394225;19;20458;-58
2023/06/21 10:17:47;;;;;;;0.25;0.10;;;;;;;43.27;33.20;99720.31;7396203;19;20021;-58
2023/06/21 10:20:14;;;;;;;0.60;0.30;;;;;;;43.02;33.81;99724.31;7394046;19;20024;-58
2023/06/21 10:22:44;;;;;;;2.38;0.57;;;;;;;32.34;48.46;99730.84;7395903;19;20014;-58
2023/06/21 10:25:11;;;;;;;2.13;0.28;;;;;;;28.02;80.00;99734.53;7394636;19;20066;-57
2023/06/21 10:27:41;;;;;;;0.88;0.43;;;;;;;23.42;100.00;99744.13;7394522;19;20415;-57
2023/06/21 10:30:08;;;;;;;1.10;0.38;;;;;;;22.12;100.00;99735.72;7393333;19;20034;-57
2023/06/21 10:32:38;;;;;;;1.25;0.70;;;;;;;25.31;100.00;99745.09;7393280;19;20471;-57
2023/06/21 10:35:15;;;;;;;0.80;0.20;;;;;;;21.98;100.00;99739.97;7396551;19;20352;-57
2023/06/21 10:37:50;;;;;;;2.38;0.10;;;;;;;21.97;100.00;99742.06;7396010;19;20019;-57
2023/06/21 10:40:18;;;;;;;0.93;0.28;;;;;;;21.94;100.00;99737.47;7394168;19;20015;-58
2023/06/21 10:42:45;;;;;;;1.17;0.10;;;;;;;22.10;100.00;99733.44;7393169;19;20066;-58
2023/06/21 10:45:13;;;;;;;1.65;0.30;;;;;;;22.22;100.00;99728.94;7392206;19;20015;-57
2023/06/21 10:47:40;;;;;;;0.77;0.20;;;;;;;22.48;100.00;99734.38;7395017;19;20021;-59
2023/06/21 10:50:08;;;;;;;3.38;0.47;;;;;;;22.73;100.00;99736.78;7393262;19;20022;-57
2023/06/21 10:52:35;;;;;;;1.25;0.10;;;;;;;23.03;100.00;99728.34;7392111;19;20341;-58
2023/06/21 10:55:03;;;;;;;1.52;0.40;;;;;;;23.34;100.00;99732.78;7393642;19;20006;-58
2023/06/21 10:57:31;;;;;;;0.65;0.40;;;;;;;32.61;98.58;99712.97;7394943;19;20041;-58
2023/06/21 11:00:03;;;;;;;0.25;0.20;;;;;;;24.65;100.00;99730.63;7396787;19;20014;-58
2023/06/21 11:02:30;;;;;;;1.02;0.15;;;;;;;23.10;100.00;99733.28;7392764;19;20078;-57
2023/06/21 11:05:17;;;;;;;0.52;0.20;;;;;;;22.89;100.00;99738.34;7391682;19;20490;-57
2023/06/21 11:08:00;;;;;;;0.40;0.20;;;;;;;22.96;100.00;99737.59;7388097;19;20007;-58
2023/06/21 11:10:49;;;;;;;0.93;0.20;;;;;;;23.17;100.00;99735.38;7400547;19;20351;-59
2023/06/21 11:13:32;;;;;;;0.83;0.40;;;;;;;22.94;100.00;99740.25;7398453;19;20300;-59
2023/06/21 11:16:09;;;;;;;0.32;0.20;;;;;;;38.01;65.03;99718.78;7399052;19;20010;-58
2023/06/21 11:18:35;;;;;;;4.03;0.20;;;;;;;41.32;46.02;99714.56;7397989;19;20007;-58
2023/06/21 11:21:05;;;;;;;1.38;0.30;;;;;;;41.64;41.54;99714.50;7399921;19;20026;-58
2023/06/21 11:23:46;;;;;;;0.10;0.10;;;;;;;40.99;39.83;99710.16;7404614;19;20023;-58
2023/06/21 11:26:14;;;;;;;1.05;0.20;;;;;;;34.66;67.69;99718.25;7400562;19;20034;-59
2023/06/21 11:28:49;;;;;;;4.75;1.02;;;;;;;42.03;40.81;99705.78;7403400;19;20070;-59
2023/06/21 11:31:17;;;;;;;0.55;0.15;;;;;;;44.00;35.92;99705.06;7403457;19;20459;-56
2023/06/21 11:33:43;;;;;;;1.05;0.10;;;;;;;43.73;35.87;99711.38;7400772;19;20393;-56
2023/06/21 11:36:10;;;;;;;0.90;0.30;;;;;;;43.28;35.04;99710.03;7399635;19;20034;-56